Time;durP1;ratioP1;P1;durP2;ratioP2;P2;SDS_P1;SDS_P2;PMS_P1;PMS_P2;Temp;Humidity;BMP_temperature;BMP_pressure;BME280_temperature;BME280_humidity;BME280_pressure;Samples;Min_cycle;Max_cycle;Signal;HPM_P1;HPM_P2
2022/08/25 00:02:14;;;;;;;27.13;18.20;;;21.00;99.90;;;;;;5067238;28;20202;-81
2022/08/25 00:04:40;;;;;;;27.33;18.93;;;20.90;99.90;;;;;;5103560;28;20753;-81
2022/08/25 00:07:06;;;;;;;27.40;17.67;;;20.80;99.90;;;;;;5105097;28;20307;-80
2022/08/25 00:09:33;;;;;;;25.70;18.30;;;20.70;99.90;;;;;;5101269;28;20255;-81
2022/08/25 00:12:00;;;;;;;25.90;19.23;;;20.60;99.90;;;;;;5082914;28;20216;-80
2022/08/25 00:14:30;;;;;;;23.23;17.73;;;20.60;99.90;;;;;;5086753;28;20206;-80
2022/08/25 00:16:56;;;;;;;27.17;18.03;;;20.60;99.90;;;;;;5106138;28;20246;-80
2022/08/25 00:19:28;;;;;;;30.90;20.23;;;20.60;99.90;;;;;;5102372;28;20245;-79
2022/08/25 00:21:54;;;;;;;30.03;19.43;;;20.60;99.90;;;;;;5100955;28;20212;-80
2022/08/25 00:24:20;;;;;;;25.33;20.17;;;20.50;99.90;;;;;;5100918;28;20216;-80
2022/08/25 00:26:48;;;;;;;25.17;19.67;;;20.40;99.90;;;;;;5106187;28;20235;-79
2022/08/25 00:29:15;;;;;;;29.03;19.53;;;20.30;99.90;;;;;;5104097;28;20218;-81
2022/08/25 00:31:41;;;;;;;29.33;20.70;;;20.20;99.90;;;;;;5084804;28;20579;-80
2022/08/25 00:34:11;;;;;;;31.80;19.20;;;20.10;99.90;;;;;;5104150;28;20743;-80
2022/08/25 00:36:37;;;;;;;29.23;19.37;;;20.10;99.90;;;;;;5102731;28;20235;-81
2022/08/25 00:39:05;;;;;;;26.83;18.80;;;20.10;99.90;;;;;;5086363;28;20234;-79
2022/08/25 00:41:31;;;;;;;26.27;18.43;;;20.10;99.90;;;;;;5070477;28;20279;-81
2022/08/25 00:44:03;;;;;;;26.13;20.20;;;20.00;99.90;;;;;;5102735;28;20280;-81
2022/08/25 00:46:33;;;;;;;30.67;18.37;;;20.00;99.90;;;;;;5104698;28;20247;-81
2022/08/25 00:49:22;;;;;;;26.70;18.17;;;19.90;99.90;;;;;;5104710;28;20674;-80
2022/08/25 00:51:54;;;;;;;30.77;19.93;;;20.00;99.90;;;;;;5100900;28;20251;-80
2022/08/25 00:54:52;;;;;;;25.80;18.87;;;20.00;99.90;;;;;;5096537;28;20213;-80
2022/08/25 00:57:29;;;;;;;26.03;18.97;;;19.90;99.90;;;;;;5068737;28;20243;-80
2022/08/25 00:59:56;;;;;;;24.67;17.53;;;19.90;99.90;;;;;;5101438;28;20219;-81
2022/08/25 01:02:22;;;;;;;26.57;17.07;;;19.80;99.90;;;;;;5077301;28;20184;-80
2022/08/25 01:04:48;;;;;;;24.10;17.63;;;19.70;99.90;;;;;;5107508;28;20231;-80
2022/08/25 01:07:15;;;;;;;24.27;18.27;;;19.60;99.90;;;;;;5106467;28;20734;-80
2022/08/25 01:09:42;;;;;;;22.60;17.30;;;19.60;99.90;;;;;;5100328;28;20220;-80
2022/08/25 01:12:09;;;;;;;27.07;16.80;;;19.50;99.90;;;;;;5100262;28;20227;-81
2022/08/25 01:14:36;;;;;;;27.20;17.17;;;19.50;99.90;;;;;;5101220;28;20738;-80
2022/08/25 01:17:02;;;;;;;24.93;17.40;;;19.40;99.90;;;;;;5101492;28;20216;-80
2022/08/25 01:19:31;;;;;;;22.63;15.67;;;19.40;99.90;;;;;;5086223;28;20678;-80
2022/08/25 01:21:56;;;;;;;22.87;16.77;;;19.30;99.90;;;;;;5103823;28;20219;-80
2022/08/25 01:24:37;;;;;;;24.77;16.90;;;19.20;99.90;;;;;;5099602;28;20223;-80
2022/08/25 01:27:03;;;;;;;24.90;16.60;;;19.20;99.90;;;;;;5102816;28;20254;-81
2022/08/25 01:29:30;;;;;;;18.50;14.60;;;19.10;99.90;;;;;;5081959;28;20198;-81
2022/08/25 01:32:06;;;;;;;22.10;15.43;;;19.10;99.90;;;;;;5086550;28;20777;-80
2022/08/25 01:34:37;;;;;;;24.90;16.33;;;19.10;99.90;;;;;;5102770;28;20251;-81
2022/08/25 01:37:04;;;;;;;25.50;16.53;;;19.00;99.90;;;;;;5103066;28;20652;-80
2022/08/25 01:39:37;;;;;;;23.53;15.80;;;18.90;99.90;;;;;;5066896;28;20213;-80
2022/08/25 01:42:07;;;;;;;25.57;17.67;;;18.90;99.90;;;;;;5083228;28;20220;-80
2022/08/25 01:44:36;;;;;;;21.27;15.40;;;18.80;99.90;;;;;;5084984;28;20264;-81
2022/08/25 01:47:03;;;;;;;20.43;15.77;;;18.70;99.90;;;;;;5101043;28;20596;-80
2022/08/25 01:49:29;;;;;;;21.13;15.13;;;18.60;99.90;;;;;;5084614;28;20230;-82
2022/08/25 01:52:00;;;;;;;23.97;15.97;;;18.60;99.90;;;;;;5099586;28;20219;-80
2022/08/25 01:54:25;;;;;;;27.23;16.20;;;18.60;99.90;;;;;;5081770;28;20729;-80
2022/08/25 01:56:51;;;;;;;20.33;14.70;;;18.60;99.90;;;;;;5102692;28;20227;-81
2022/08/25 01:59:20;;;;;;;20.23;15.67;;;18.60;99.90;;;;;;5089590;28;20196;-80
2022/08/25 02:01:46;;;;;;;21.03;15.57;;;18.50;99.90;;;;;;5100772;28;20583;-80
2022/08/25 02:04:12;;;;;;;22.23;15.67;;;18.50;99.90;;;;;;5060452;28;20615;-80
2022/08/25 02:06:38;;;;;;;22.00;14.63;;;18.40;99.90;;;;;;5019432;28;20225;-80
2022/08/25 02:09:08;;;;;;;19.80;14.00;;;18.40;99.90;;;;;;5019558;28;20306;-81
2022/08/25 02:11:39;;;;;;;19.07;13.33;;;18.30;99.90;;;;;;5019197;28;20593;-80
2022/08/25 02:14:07;;;;;;;20.20;13.80;;;18.40;99.90;;;;;;5011858;28;20607;-80
2022/08/25 02:16:35;;;;;;;19.50;12.60;;;18.30;99.90;;;;;;5014983;28;20234;-80
2022/08/25 02:19:02;;;;;;;18.77;12.73;;;18.30;99.90;;;;;;5018870;28;20223;-81
2022/08/25 02:21:28;;;;;;;15.57;12.17;;;18.30;99.90;;;;;;5015870;28;20222;-81
2022/08/25 02:23:55;;;;;;;17.90;11.63;;;18.40;99.90;;;;;;5015805;28;20211;-80
2022/08/25 02:26:21;;;;;;;17.03;10.83;;;18.40;99.90;;;;;;5019732;28;20225;-81
2022/08/25 02:28:49;;;;;;;14.40;11.57;;;18.30;99.90;;;;;;5003139;28;20198;-80
2022/08/25 02:31:16;;;;;;;14.57;10.23;;;18.30;99.90;;;;;;5016865;28;20219;-81
2022/08/25 02:33:42;;;;;;;22.90;10.57;;;18.30;99.90;;;;;;5016247;28;20245;-80
2022/08/25 02:36:08;;;;;;;15.53;10.70;;;18.30;99.90;;;;;;5020091;28;20243;-81
2022/08/25 02:38:35;;;;;;;15.57;10.33;;;18.30;99.90;;;;;;5019380;28;20222;-81
2022/08/25 02:41:08;;;;;;;16.03;11.10;;;18.30;99.90;;;;;;5017460;28;20253;-81
2022/08/25 02:43:33;;;;;;;17.43;10.00;;;18.40;99.90;;;;;;5016124;28;20306;-80
2022/08/25 02:45:59;;;;;;;11.60;9.70;;;18.40;99.90;;;;;;5016265;28;20737;-80
2022/08/25 02:48:25;;;;;;;14.83;11.00;;;18.40;99.90;;;;;;5015857;28;20577;-81
2022/08/25 02:50:51;;;;;;;16.53;10.60;;;18.50;99.90;;;;;;5015122;28;20260;-80
2022/08/25 02:53:20;;;;;;;15.20;10.83;;;18.40;99.90;;;;;;5018210;28;20194;-84
2022/08/25 02:55:46;;;;;;;14.07;9.50;;;18.40;99.90;;;;;;5015984;28;20694;-81
2022/08/25 02:58:13;;;;;;;14.33;9.83;;;18.30;99.90;;;;;;5019923;28;20226;-81
2022/08/25 03:00:39;;;;;;;12.67;9.67;;;18.20;99.90;;;;;;4996535;28;20709;-80
2022/08/25 03:03:05;;;;;;;22.40;10.73;;;18.10;99.90;;;;;;5010660;28;21065;-81
2022/08/25 03:05:31;;;;;;;18.27;10.73;;;18.10;99.90;;;;;;5087931;28;20232;-80
2022/08/25 03:07:57;;;;;;;16.83;9.83;;;18.10;99.90;;;;;;5103621;28;20197;-80
2022/08/25 03:10:23;;;;;;;16.40;11.17;;;18.10;99.90;;;;;;5081216;28;20704;-80
2022/08/25 03:12:49;;;;;;;15.00;10.57;;;18.00;99.90;;;;;;5080402;28;20702;-80
2022/08/25 03:15:16;;;;;;;18.57;10.73;;;17.90;99.90;;;;;;5097419;28;20228;-80
2022/08/25 03:17:46;;;;;;;15.57;9.57;;;17.90;99.90;;;;;;5103778;28;20663;-80
2022/08/25 03:20:12;;;;;;;16.83;10.70;;;17.90;99.90;;;;;;5105062;28;20598;-80
2022/08/25 03:22:38;;;;;;;16.20;10.67;;;17.90;99.90;;;;;;5106981;28;20215;-80
2022/08/25 03:27:49;;;;;;;17.03;9.80;;;17.70;99.90;;;;;;5103216;28;20236;-80
2022/08/25 03:30:16;;;;;;;13.23;9.57;;;17.70;99.90;;;;;;5084276;28;20216;-80
2022/08/25 03:32:41;;;;;;;16.80;11.37;;;17.70;99.90;;;;;;5087906;28;20242;-80
2022/08/25 03:35:08;;;;;;;13.53;9.13;;;17.60;99.90;;;;;;5106710;28;20698;-81
2022/08/25 03:37:34;;;;;;;14.57;9.57;;;17.60;99.90;;;;;;5084200;28;20249;-80
2022/08/25 03:40:01;;;;;;;14.53;8.90;;;17.60;99.90;;;;;;5084561;28;20682;-80
2022/08/25 03:42:27;;;;;;;12.40;9.23;;;17.60;99.90;;;;;;5085530;28;20592;-81
2022/08/25 03:44:53;;;;;;;14.77;11.10;;;17.50;99.90;;;;;;5105833;28;20216;-80
2022/08/25 03:47:19;;;;;;;14.67;9.63;;;17.50;99.90;;;;;;5085026;28;20189;-80
2022/08/25 03:49:45;;;;;;;15.90;9.23;;;17.40;99.90;;;;;;5071241;28;20194;-80
2022/08/25 03:52:10;;;;;;;11.83;8.47;;;17.40;99.90;;;;;;5101948;28;20216;-80
2022/08/25 03:54:36;;;;;;;12.43;9.17;;;17.40;99.90;;;;;;5076365;28;20223;-82
2022/08/25 03:57:02;;;;;;;10.37;7.37;;;17.40;99.90;;;;;;5066956;28;20333;-80
2022/08/25 03:59:28;;;;;;;11.27;7.87;;;17.40;99.90;;;;;;5106136;28;20665;-80
2022/08/25 04:01:54;;;;;;;10.47;7.00;;;17.50;99.90;;;;;;5069783;28;20188;-80
2022/08/25 04:04:20;;;;;;;10.40;8.17;;;17.50;99.90;;;;;;5057746;28;20234;-80
2022/08/25 04:06:46;;;;;;;11.90;8.03;;;17.50;99.90;;;;;;4993104;28;20234;-81
2022/08/25 04:09:12;;;;;;;11.70;8.17;;;17.50;99.90;;;;;;5018269;28;20677;-80
2022/08/25 04:11:38;;;;;;;12.70;7.47;;;17.50;99.90;;;;;;5013948;28;20553;-80
2022/08/25 04:14:04;;;;;;;10.27;6.73;;;17.50;99.90;;;;;;5022992;28;20283;-81
2022/08/25 04:16:32;;;;;;;10.47;6.57;;;17.40;99.90;;;;;;5019645;28;20630;-81
2022/08/25 04:19:01;;;;;;;11.57;7.93;;;17.30;99.90;;;;;;5022233;28;20804;-80
2022/08/25 04:21:27;;;;;;;9.57;6.70;;;17.30;99.90;;;;;;5019379;28;20215;-80
2022/08/25 04:23:55;;;;;;;8.13;6.13;;;17.30;99.90;;;;;;5000457;28;20219;-80
2022/08/25 04:26:31;;;;;;;8.03;6.17;;;17.30;99.90;;;;;;5020509;28;20547;-80
2022/08/25 04:28:59;;;;;;;8.57;6.07;;;17.30;99.90;;;;;;5018543;28;20187;-80
2022/08/25 04:31:25;;;;;;;8.07;5.73;;;17.30;99.90;;;;;;5019327;28;20685;-81
2022/08/25 04:33:51;;;;;;;7.10;5.67;;;17.30;99.90;;;;;;5016276;28;20249;-80
2022/08/25 04:36:19;;;;;;;6.90;5.73;;;17.40;99.90;;;;;;5002006;28;20231;-81
2022/08/25 04:38:46;;;;;;;8.00;6.30;;;17.40;99.90;;;;;;5021451;28;20213;-80
2022/08/25 04:41:14;;;;;;;6.87;6.17;;;17.40;99.90;;;;;;5016204;28;20198;-80
2022/08/25 04:43:41;;;;;;;8.00;5.40;;;17.40;99.90;;;;;;5020078;28;20219;-81
2022/08/25 04:46:22;;;;;;;7.77;5.77;;;17.40;99.90;;;;;;5021328;28;20705;-80
2022/08/25 04:48:50;;;;;;;7.90;5.10;;;17.40;99.90;;;;;;5033257;28;20698;-80
2022/08/25 04:51:22;;;;;;;7.73;5.43;;;17.50;99.90;;;;;;5008444;28;20238;-80
2022/08/25 04:53:49;;;;;;;12.03;5.20;;;17.40;99.90;;;;;;5020560;28;20219;-80
2022/08/25 04:56:25;;;;;;;7.93;5.83;;;17.50;99.90;;;;;;5018085;28;20707;-80
2022/08/25 04:58:52;;;;;;;10.03;5.77;;;17.50;99.90;;;;;;5022150;28;20203;-80
2022/08/25 05:01:20;;;;;;;9.10;6.37;;;17.50;99.90;;;;;;5019806;28;20230;-80
2022/08/25 05:03:51;;;;;;;8.93;6.23;;;17.50;99.90;;;;;;5029541;28;20636;-80
2022/08/25 05:06:17;;;;;;;6.77;5.27;;;17.50;99.90;;;;;;5090844;28;20226;-79
2022/08/25 05:08:43;;;;;;;6.83;5.33;;;17.50;99.90;;;;;;5074466;28;20220;-80
2022/08/25 05:11:15;;;;;;;8.40;5.93;;;17.50;99.90;;;;;;5105670;28;20248;-80
2022/08/25 05:13:41;;;;;;;7.27;5.40;;;17.60;99.90;;;;;;5102976;28;20772;-81
2022/08/25 05:16:07;;;;;;;6.30;5.13;;;17.60;99.90;;;;;;5082343;28;20237;-80
2022/08/25 05:18:34;;;;;;;5.30;4.80;;;17.70;99.90;;;;;;5082086;28;20212;-80
2022/08/25 05:21:08;;;;;;;9.47;4.90;;;17.70;99.90;;;;;;5107833;28;20231;-81
2022/08/25 05:23:34;;;;;;;7.80;5.13;;;17.80;99.90;;;;;;5104957;28;20188;-82
2022/08/25 05:26:04;;;;;;;5.40;4.90;;;17.90;99.90;;;;;;5100550;28;20332;-81
2022/08/25 05:28:30;;;;;;;5.43;4.77;;;18.00;99.90;;;;;;5100520;28;20217;-81
2022/08/25 05:30:58;;;;;;;8.27;5.80;;;18.10;99.90;;;;;;5068953;28;20682;-80
2022/08/25 05:33:24;;;;;;;7.00;5.37;;;18.20;99.90;;;;;;5100543;28;20217;-80
2022/08/25 05:35:50;;;;;;;7.37;6.27;;;18.30;99.90;;;;;;5099921;28;20740;-81
2022/08/25 05:38:16;;;;;;;6.93;5.00;;;18.40;99.90;;;;;;5093454;28;20604;-80
2022/08/25 05:40:42;;;;;;;5.73;4.80;;;18.50;99.90;;;;;;5068829;28;20219;-82
2022/08/25 05:43:08;;;;;;;8.87;6.23;;;18.60;99.90;;;;;;5076018;28;20227;-81
2022/08/25 05:45:34;;;;;;;7.67;5.30;;;18.70;99.90;;;;;;5101089;28;20228;-80
2022/08/25 05:48:00;;;;;;;5.63;4.97;;;18.80;99.90;;;;;;5084204;28;20667;-80
2022/08/25 05:50:26;;;;;;;8.37;5.97;;;19.20;99.90;;;;;;5076741;28;20188;-81
2022/08/25 05:52:52;;;;;;;7.57;5.47;;;20.10;99.90;;;;;;5082004;28;20213;-81
2022/08/25 05:55:18;;;;;;;7.23;5.67;;;20.90;99.90;;;;;;5083643;28;20242;-80
2022/08/25 05:57:44;;;;;;;8.20;5.30;;;21.80;99.90;;;;;;5068916;28;20204;-81
2022/08/25 06:00:11;;;;;;;6.30;5.27;;;22.20;99.90;;;;;;5093789;28;20686;-82
2022/08/25 06:02:42;;;;;;;6.07;4.43;;;22.60;99.90;;;;;;5106915;28;20679;-80
2022/08/25 06:05:12;;;;;;;7.23;4.17;;;23.20;99.90;;;;;;5040930;28;20247;-80
2022/08/25 06:07:38;;;;;;;9.47;4.83;;;23.00;99.90;;;;;;5020355;28;20326;-80
2022/08/25 06:10:06;;;;;;;4.87;4.33;;;22.90;99.90;;;;;;5021492;28;20673;-81
2022/08/25 06:12:33;;;;;;;5.43;4.27;;;23.00;99.90;;;;;;5017239;28;20219;-80
2022/08/25 06:14:58;;;;;;;7.03;3.97;;;23.20;99.90;;;;;;5016911;28;20226;-80
2022/08/25 06:17:24;;;;;;;4.17;3.63;;;23.50;99.90;;;;;;5015481;28;20228;-81
2022/08/25 06:19:51;;;;;;;10.53;4.40;;;23.70;99.90;;;;;;5016546;28;20527;-80
2022/08/25 06:22:17;;;;;;;5.10;3.77;;;23.40;99.90;;;;;;5015502;28;20305;-81
2022/08/25 06:24:43;;;;;;;5.22;4.30;;;23.50;99.90;;;;;;5016737;28;20348;-81
2022/08/25 06:27:08;;;;;;;6.97;4.57;;;23.80;99.90;;;;;;5013967;28;20254;-82
2022/08/25 06:29:34;;;;;;;16.85;4.60;;;24.70;99.90;;;;;;5016308;28;20179;-81
2022/08/25 06:32:00;;;;;;;5.10;4.60;;;24.30;99.90;;;;;;5000690;28;20239;-81
2022/08/25 06:34:25;;;;;;;5.90;4.35;;;24.40;99.90;;;;;;5002209;28;20754;-80
2022/08/25 06:36:51;;;;;;;6.18;4.45;;;23.60;99.90;;;;;;5015242;28;20227;-81
2022/08/25 06:39:17;;;;;;;4.90;4.05;;;22.60;99.90;;;;;;5019829;28;20673;-81
2022/08/25 06:41:43;;;;;;;6.28;4.30;;;22.10;99.90;;;;;;5015183;28;20222;-81
2022/08/25 06:44:10;;;;;;;7.03;4.32;;;22.00;99.90;;;;;;5020397;28;20195;-79
2022/08/25 06:46:36;;;;;;;7.93;4.40;;;22.00;99.90;;;;;;5016161;28;20673;-78
2022/08/25 06:49:02;;;;;;;7.55;4.07;;;22.00;99.90;;;;;;5018320;28;20223;-80
2022/08/25 06:51:27;;;;;;;9.65;4.55;;;21.90;99.90;;;;;;5034648;28;20214;-80
2022/08/25 06:53:53;;;;;;;4.67;4.00;;;22.30;99.90;;;;;;5022541;28;20223;-79
2022/08/25 06:56:20;;;;;;;6.30;4.13;;;23.10;99.90;;;;;;5004276;28;20217;-79
2022/08/25 06:58:47;;;;;;;7.05;4.20;;;24.20;99.90;;;;;;5023178;28;20186;-80
2022/08/25 07:01:20;;;;;;;7.47;4.70;;;24.50;99.90;;;;;;5025731;28;20699;-81
2022/08/25 07:03:47;;;;;;;7.18;3.88;;;25.00;99.90;;;;;;5030632;28;20247;-81
2022/08/25 07:06:14;;;;;;;5.50;3.58;;;26.20;99.90;;;;;;5106245;28;20216;-81
2022/08/25 07:08:39;;;;;;;7.18;4.00;;;26.20;99.90;;;;;;5106731;28;20561;-81
2022/08/25 07:11:07;;;;;;;4.32;3.40;;;25.70;99.90;;;;;;5069461;28;20279;-81
2022/08/25 07:13:33;;;;;;;5.22;3.95;;;25.80;99.90;;;;;;5106024;28;20209;-82
2022/08/25 07:15:59;;;;;;;6.75;3.72;;;25.30;99.90;;;;;;5085335;28;20725;-81
2022/08/25 07:18:25;;;;;;;5.22;3.72;;;26.20;99.90;;;;;;5092886;28;20220;-82
2022/08/25 07:20:52;;;;;;;4.00;3.40;;;26.30;99.90;;;;;;5105526;28;20215;-82
2022/08/25 07:23:19;;;;;;;3.67;3.38;;;26.60;99.90;;;;;;5103196;28;20301;-82
2022/08/25 07:25:46;;;;;;;5.65;3.95;;;26.70;99.90;;;;;;5093822;28;20219;-83
2022/08/25 07:28:13;;;;;;;5.28;3.35;;;26.20;99.90;;;;;;5053662;28;20663;-81
2022/08/25 07:30:39;;;;;;;4.30;3.63;;;26.50;99.90;;;;;;5091928;28;20682;-81
2022/08/25 07:33:05;;;;;;;5.60;3.40;;;26.80;99.90;;;;;;5096092;28;20747;-84
2022/08/25 07:35:31;;;;;;;3.83;3.42;;;27.60;99.90;;;;;;5085643;28;20204;-82
2022/08/25 07:37:58;;;;;;;4.70;3.67;;;27.60;99.90;;;;;;5088470;28;20195;-82
2022/08/25 07:40:34;;;;;;;4.07;3.13;;;27.30;99.90;;;;;;5104379;28;20302;-82
2022/08/25 07:43:03;;;;;;;4.30;3.33;;;26.80;99.90;;;;;;5101966;28;20277;-82
2022/08/25 07:45:32;;;;;;;3.47;3.17;;;26.70;99.90;;;;;;5106067;28;20223;-82
2022/08/25 07:48:08;;;;;;;3.28;2.97;;;26.60;99.90;;;;;;5101659;28;20769;-86
2022/08/25 07:50:37;;;;;;;3.80;3.40;;;27.40;99.90;;;;;;5084557;28;20226;-81
2022/08/25 07:53:04;;;;;;;3.47;3.17;;;27.60;99.90;;;;;;5105106;28;20172;-82
2022/08/25 07:55:31;;;;;;;4.15;3.40;;;27.50;99.90;;;;;;5103984;28;20224;-84
2022/08/25 07:57:58;;;;;;;3.42;3.13;;;27.60;99.90;;;;;;5083515;28;20228;-82
2022/08/25 08:00:29;;;;;;;3.47;3.05;;;28.20;99.90;;;;;;5105821;28;20212;-83
2022/08/25 08:02:56;;;;;;;3.22;2.90;;;27.60;99.90;;;;;;5103939;28;20204;-83
2022/08/25 08:05:23;;;;;;;4.20;3.30;;;27.00;99.90;;;;;;5034454;28;20771;-83
2022/08/25 08:07:48;;;;;;;11.00;3.30;;;27.00;99.90;;;;;;5025695;28;20228;-82
2022/08/25 08:10:15;;;;;;;3.40;3.03;;;27.30;99.90;;;;;;5044854;27;20216;-83
2022/08/25 08:12:41;;;;;;;3.72;2.90;;;27.30;99.90;;;;;;5028349;28;20683;-82
2022/08/25 08:15:07;;;;;;;3.40;3.10;;;27.60;99.90;;;;;;5018224;28;20682;-83
2022/08/25 08:17:33;;;;;;;3.53;2.70;;;27.50;99.90;;;;;;5003976;28;20588;-83
2022/08/25 08:19:59;;;;;;;2.90;2.70;;;27.40;99.90;;;;;;5001600;28;20206;-83
2022/08/25 08:22:26;;;;;;;7.47;3.13;;;27.70;99.90;;;;;;5020667;28;20230;-84
2022/08/25 08:24:51;;;;;;;4.13;2.65;;;27.50;99.90;;;;;;5018135;28;20222;-83
2022/08/25 08:27:17;;;;;;;3.97;2.95;;;27.70;99.90;;;;;;5016683;28;20302;-84
2022/08/25 08:29:44;;;;;;;3.88;2.78;;;27.90;99.90;;;;;;5017934;28;20222;-83
2022/08/25 08:32:14;;;;;;;4.53;3.00;;;27.80;99.90;;;;;;5032376;28;20217;-83
2022/08/25 08:34:40;;;;;;;8.27;2.80;;;28.00;99.90;;;;;;5027376;28;20282;-82
2022/08/25 08:37:07;;;;;;;2.65;2.35;;;27.70;99.90;;;;;;5030161;28;20238;-83
2022/08/25 08:39:33;;;;;;;3.38;2.88;;;27.50;99.90;;;;;;5029173;28;20226;-83
2022/08/25 08:42:31;;;;;;;3.65;2.65;;;28.00;99.90;;;;;;5025699;28;20288;-82
2022/08/25 08:45:30;;;;;;;3.38;2.92;;;28.20;99.90;;;;;;5017720;28;20222;-84
2022/08/25 08:48:14;;;;;;;2.72;2.53;;;27.90;99.90;;;;;;5018736;28;20223;-82
2022/08/25 08:51:30;;;;;;;3.17;2.15;;;28.00;99.90;;;;;;5018023;28;20214;-83
2022/08/25 08:54:12;;;;;;;4.05;2.70;;;28.30;99.90;;;;;;5012498;28;20250;-83
2022/08/25 08:56:42;;;;;;;2.80;2.40;;;28.70;99.90;;;;;;5020854;28;20214;-84
2022/08/25 08:59:18;;;;;;;3.40;2.25;;;28.60;99.90;;;;;;5021971;28;20179;-84
2022/08/25 09:01:55;;;;;;;3.30;2.35;;;28.50;99.90;;;;;;5025677;28;20218;-84
2022/08/25 09:04:31;;;;;;;2.35;2.15;;;28.60;99.90;;;;;;5057367;28;20368;-83
2022/08/25 09:07:00;;;;;;;5.28;2.65;;;28.70;99.90;;;;;;5111386;28;20223;-83
2022/08/25 09:09:29;;;;;;;2.75;2.22;;;28.70;99.90;;;;;;5112518;28;20222;-82
2022/08/25 09:12:01;;;;;;;2.40;2.20;;;29.10;99.90;;;;;;5112506;28;20212;-82
2022/08/25 09:14:52;;;;;;;5.15;2.47;;;29.10;99.90;;;;;;5091215;28;20672;-83
2022/08/25 09:17:37;;;;;;;4.65;2.95;;;29.30;99.90;;;;;;5103904;28;20213;-83
2022/08/25 09:20:17;;;;;;;2.60;2.33;;;29.30;99.90;;;;;;5104646;28;20220;-84
2022/08/25 09:22:53;;;;;;;2.90;2.70;;;29.30;99.90;;;;;;5100260;28;20291;-83
2022/08/25 09:25:37;;;;;;;3.42;2.10;;;28.90;99.90;;;;;;5082788;28;20580;-82
2022/08/25 09:28:08;;;;;;;2.55;2.33;;;29.10;99.90;;;;;;5102264;28;20220;-83
2022/08/25 09:30:50;;;;;;;2.72;2.22;;;28.90;99.90;;;;;;5100518;28;20220;-83
2022/08/25 09:33:20;;;;;;;4.90;2.40;;;29.00;99.90;;;;;;5083658;28;20220;-83
2022/08/25 09:35:46;;;;;;;2.80;2.15;;;29.30;99.90;;;;;;5099349;28;20595;-83
2022/08/25 09:38:13;;;;;;;2.50;2.25;;;29.50;99.90;;;;;;5084704;28;20194;-83
2022/08/25 09:40:45;;;;;;;2.13;1.92;;;29.40;99.90;;;;;;5101525;28;20488;-84
2022/08/25 09:43:27;;;;;;;5.28;2.25;;;29.40;99.90;;;;;;5100441;28;20265;-83
2022/08/25 09:46:12;;;;;;;2.80;1.95;;;29.20;99.90;;;;;;5095756;28;20228;-84
2022/08/25 09:48:41;;;;;;;3.47;2.50;;;29.10;99.90;;;;;;5081937;28;20733;-83
2022/08/25 09:51:31;;;;;;;3.10;2.28;;;29.30;99.90;;;;;;5102444;28;20306;-83
2022/08/25 09:54:04;;;;;;;2.45;1.73;;;29.50;99.90;;;;;;5101922;28;20295;-83
2022/08/25 09:56:32;;;;;;;4.18;2.17;;;29.40;99.90;;;;;;5100820;28;20260;-82
2022/08/25 09:59:22;;;;;;;2.13;1.98;;;29.50;99.90;;;;;;5091340;28;20188;-83
2022/08/25 10:01:50;;;;;;;2.10;1.90;;;29.90;99.90;;;;;;5101585;28;20216;-83
2022/08/25 10:04:30;;;;;;;3.10;1.95;;;29.70;99.90;;;;;;5098744;28;20244;-81
2022/08/25 10:06:58;;;;;;;3.38;2.15;;;29.90;99.90;;;;;;5087023;28;20302;-84
2022/08/25 10:09:36;;;;;;;2.55;2.20;;;30.10;99.90;;;;;;5086316;28;20266;-83
2022/08/25 10:12:23;;;;;;;7.40;2.22;;;30.30;99.90;;;;;;5088792;28;20221;-83
2022/08/25 10:14:50;;;;;;;3.05;2.03;;;30.30;99.90;;;;;;5099387;28;20233;-83
2022/08/25 10:17:28;;;;;;;1.70;1.60;;;30.20;99.90;;;;;;5103589;28;20208;-82
2022/08/25 10:20:21;;;;;;;2.50;2.00;;;30.50;99.90;;;;;;5100992;28;20227;-82
2022/08/25 10:22:48;;;;;;;3.15;1.80;;;30.50;99.90;;;;;;5082238;28;20218;-84
2022/08/25 10:25:18;;;;;;;2.20;1.70;;;30.50;99.90;;;;;;5083730;28;20212;-83
2022/08/25 10:28:33;;;;;;;4.38;1.67;;;30.70;99.90;;;;;;5100670;28;20213;-83
2022/08/25 10:31:14;;;;;;;3.70;1.77;;;31.10;99.90;;;;;;5004154;28;20281;-83
2022/08/25 10:33:57;;;;;;;4.95;1.52;;;31.00;99.90;;;;;;5099664;28;20298;-83
2022/08/25 10:36:28;;;;;;;3.05;1.55;;;30.60;99.90;;;;;;5099048;28;20232;-83
2022/08/25 10:39:00;;;;;;;2.30;1.50;;;30.40;99.90;;;;;;5099137;28;20221;-83
2022/08/25 10:42:08;;;;;;;1.92;1.60;;;30.40;99.90;;;;;;5097974;28;20189;-84
2022/08/25 10:47:51;;;;;;;1.77;1.67;;;30.70;99.90;;;;;;5101427;28;20267;-86
2022/08/25 10:50:41;;;;;;;3.22;2.00;;;30.40;99.90;;;;;;5082444;28;20237;-83
2022/08/25 10:53:19;;;;;;;2.45;1.60;;;30.50;99.90;;;;;;5085447;28;20590;-83
2022/08/25 10:56:11;;;;;;;4.05;1.95;;;30.50;99.90;;;;;;5084065;28;20245;-83
2022/08/25 10:58:53;;;;;;;2.67;1.55;;;31.00;99.90;;;;;;5109822;28;20215;-84
2022/08/25 11:01:54;;;;;;;2.50;1.73;;;30.60;99.90;;;;;;5081147;28;20452;-83
2022/08/25 11:04:28;;;;;;;3.60;2.10;;;30.50;99.90;;;;;;5107201;28;20241;-83
2022/08/25 11:07:10;;;;;;;2.95;1.95;;;30.30;99.90;;;;;;5090967;28;20290;-84
2022/08/25 11:09:46;;;;;;;4.38;1.80;;;30.30;99.90;;;;;;5109782;28;20257;-83
2022/08/25 11:12:17;;;;;;;3.58;2.03;;;30.50;99.90;;;;;;5109828;28;20578;-83
2022/08/25 11:14:51;;;;;;;3.33;1.63;;;30.60;99.90;;;;;;5090243;28;20212;-83
2022/08/25 11:17:50;;;;;;;3.55;2.10;;;30.40;99.90;;;;;;5105665;28;20199;-83
2022/08/25 11:20:22;;;;;;;1.90;1.70;;;30.30;99.90;;;;;;5104170;28;20219;-85
2022/08/25 11:23:04;;;;;;;1.80;1.70;;;30.50;99.90;;;;;;5106855;28;20199;-84
2022/08/25 11:25:39;;;;;;;2.92;2.03;;;30.50;99.90;;;;;;5081031;28;20228;-83
2022/08/25 11:28:14;;;;;;;4.07;1.63;;;30.40;99.90;;;;;;5095904;28;20227;-83
2022/08/25 11:30:41;;;;;;;2.50;1.70;;;30.50;99.90;;;;;;5084152;28;20219;-83
2022/08/25 11:33:16;;;;;;;2.25;1.98;;;30.40;99.90;;;;;;5107831;28;20231;-83
2022/08/25 11:35:54;;;;;;;4.00;1.50;;;30.50;99.90;;;;;;5080803;28;20614;-83
2022/08/25 11:38:45;;;;;;;4.80;2.00;;;30.30;99.90;;;;;;5102329;28;20172;-82
2022/08/25 11:41:28;;;;;;;3.58;2.05;;;30.50;99.90;;;;;;5106744;28;20168;-83
2022/08/25 11:44:28;;;;;;;3.67;2.47;;;30.50;99.90;;;;;;5086774;28;20207;-83
2022/08/25 11:47:17;;;;;;;1.73;1.63;;;30.60;99.90;;;;;;5095973;28;20261;-83
2022/08/25 11:50:00;;;;;;;3.55;2.17;;;30.50;99.90;;;;;;5110763;28;20208;-83
2022/08/25 11:52:32;;;;;;;1.75;1.65;;;30.30;99.90;;;;;;5095579;28;20393;-83
2022/08/25 11:55:18;;;;;;;4.20;2.38;;;30.30;99.90;;;;;;5112068;28;20212;-83
2022/08/25 11:57:47;;;;;;;3.03;1.83;;;30.40;99.90;;;;;;5093276;28;20226;-83
2022/08/25 12:00:42;;;;;;;2.42;1.80;;;30.50;99.90;;;;;;5106789;28;20749;-83
2022/08/25 12:03:35;;;;;;;2.30;2.15;;;30.30;99.90;;;;;;5087727;28;20577;-84
2022/08/25 12:06:25;;;;;;;2.78;2.05;;;30.30;99.90;;;;;;5086083;28;20319;-83
2022/08/25 12:09:12;;;;;;;3.40;2.15;;;30.70;99.90;;;;;;5091987;28;20219;-84
2022/08/25 12:11:38;;;;;;;2.55;2.20;;;30.60;99.90;;;;;;5088589;28;20220;-83
2022/08/25 12:14:13;;;;;;;3.17;2.10;;;30.50;99.90;;;;;;5084085;28;20189;-83
2022/08/25 12:17:05;;;;;;;2.00;1.80;;;30.30;99.90;;;;;;5089327;28;20284;-84
2022/08/25 12:19:33;;;;;;;2.38;2.17;;;30.40;99.90;;;;;;5101768;28;20677;-83
2022/08/25 12:22:02;;;;;;;2.88;1.95;;;30.40;99.90;;;;;;5087782;28;20216;-83
2022/08/25 12:24:43;;;;;;;2.95;1.92;;;30.50;99.90;;;;;;5099882;28;20234;-83
2022/08/25 12:27:42;;;;;;;4.60;1.88;;;30.70;99.90;;;;;;5103554;28;20227;-84
2022/08/25 12:30:45;;;;;;;1.88;1.70;;;30.70;99.90;;;;;;5085866;28;20216;-83
2022/08/25 12:33:45;;;;;;;1.85;1.75;;;30.60;99.90;;;;;;5102536;28;20216;-83
2022/08/25 12:36:24;;;;;;;3.00;1.85;;;30.60;99.90;;;;;;5104754;28;20220;-83
2022/08/25 12:38:51;;;;;;;1.73;1.63;;;30.70;99.90;;;;;;5101305;28;20231;-83
2022/08/25 12:41:24;;;;;;;3.10;1.63;;;30.60;99.90;;;;;;5104067;28;20670;-83
2022/08/25 12:44:07;;;;;;;2.17;1.90;;;30.90;99.90;;;;;;5104011;28;20322;-85
2022/08/25 12:46:38;;;;;;;3.78;2.03;;;31.00;99.90;;;;;;5101194;28;20221;-83
2022/08/25 12:49:28;;;;;;;1.98;1.52;;;31.00;99.80;;;;;;5100876;28;20216;-83
2022/08/25 12:52:14;;;;;;;2.28;1.73;;;30.70;99.90;;;;;;5108999;28;20223;-84
2022/08/25 12:54:56;;;;;;;2.95;1.90;;;30.70;99.10;;;;;;5125314;27;20215;-83
2022/08/25 12:57:43;;;;;;;1.95;1.77;;;30.90;98.30;;;;;;5079243;28;20281;-84
2022/08/25 13:00:22;;;;;;;1.92;1.73;;;30.80;98.80;;;;;;5085911;28;20223;-83
2022/08/25 13:02:57;;;;;;;4.60;1.90;;;30.80;97.90;;;;;;5083372;28;20804;-82
2022/08/25 13:05:45;;;;;;;2.38;1.70;;;30.70;97.90;;;;;;5034688;28;20226;-84
2022/08/25 13:08:26;;;;;;;2.40;1.85;;;30.70;99.20;;;;;;5017391;28;20230;-84
2022/08/25 13:11:03;;;;;;;3.17;2.00;;;30.70;98.50;;;;;;5019481;28;20234;-83